Time;durP1;ratioP1;P1;durP2;ratioP2;P2;SDS_P1;SDS_P2;PMS_P1;PMS_P2;Temp;Humidity;BMP_temperature;BMP_pressure;BME280_temperature;BME280_humidity;BME280_pressure;Samples;Min_cycle;Max_cycle;Signal;HPM_P1;HPM_P2
2023/11/25 00:00:58;;;;;;;10.18;1.38;;;3.90;99.90;;;;;;4911439;28;88690;-76
2023/11/25 00:03:24;;;;;;;16.20;1.20;;;3.90;99.90;;;;;;4896693;28;88374;-75
2023/11/25 00:05:50;;;;;;;10.10;1.20;;;3.90;99.90;;;;;;4929879;28;88321;-75
2023/11/25 00:08:16;;;;;;;19.10;2.38;;;3.90;99.90;;;;;;4893765;28;91383;-76
2023/11/25 00:10:41;;;;;;;11.93;1.20;;;3.90;99.90;;;;;;4896401;28;88819;-75
2023/11/25 00:13:10;;;;;;;12.77;1.35;;;3.90;99.90;;;;;;4896155;28;89445;-75
2023/11/25 00:15:39;;;;;;;8.13;1.20;;;3.80;99.90;;;;;;4899856;28;90546;-75
2023/11/25 00:18:05;;;;;;;19.55;1.77;;;3.80;99.90;;;;;;4900065;28;90199;-75
2023/11/25 00:20:36;;;;;;;7.60;1.33;;;3.80;99.90;;;;;;4914445;28;93316;-76
2023/11/25 00:23:05;;;;;;;19.17;1.65;;;3.80;99.90;;;;;;4919354;28;88290;-75
2023/11/25 00:25:33;;;;;;;11.40;2.28;;;3.80;99.90;;;;;;4913546;28;87928;-75
2023/11/25 00:28:02;;;;;;;5.70;1.00;;;3.70;99.90;;;;;;4915452;28;87845;-76
2023/11/25 00:30:30;;;;;;;7.35;0.90;;;3.70;99.90;;;;;;4913024;28;87560;-76
2023/11/25 00:32:56;;;;;;;12.70;1.67;;;3.70;99.90;;;;;;4897369;28;87614;-76
2023/11/25 00:35:25;;;;;;;15.88;1.35;;;3.70;99.90;;;;;;4895682;28;90697;-76
2023/11/25 00:37:51;;;;;;;8.57;1.05;;;3.60;99.90;;;;;;4917541;28;95462;-75
2023/11/25 00:40:19;;;;;;;13.73;0.90;;;3.60;99.90;;;;;;4896906;28;91723;-75
2023/11/25 00:42:46;;;;;;;13.85;1.23;;;3.60;99.90;;;;;;4895074;28;88064;-75
2023/11/25 00:45:18;;;;;;;11.75;1.38;;;3.60;99.90;;;;;;4913739;28;88006;-76
2023/11/25 00:47:45;;;;;;;12.80;1.00;;;3.60;99.90;;;;;;4909368;28;89349;-76
2023/11/25 00:50:11;;;;;;;9.65;1.05;;;3.50;99.90;;;;;;4912841;28;87851;-76
2023/11/25 00:52:37;;;;;;;19.25;1.35;;;3.50;99.90;;;;;;4918977;28;88423;-77
2023/11/25 00:55:05;;;;;;;7.18;1.20;;;3.50;99.90;;;;;;4895500;28;89612;-75
2023/11/25 00:57:31;;;;;;;12.05;1.10;;;3.50;99.90;;;;;;4897883;28;91853;-76
2023/11/25 00:59:59;;;;;;;13.23;0.93;;;3.50;99.90;;;;;;4885437;28;91186;-76
2023/11/25 01:02:27;;;;;;;9.82;1.70;;;3.50;99.90;;;;;;4888006;28;89297;-76
2023/11/25 01:04:53;;;;;;;5.00;1.05;;;3.50;99.90;;;;;;4891110;28;93361;-75
2023/11/25 01:07:21;;;;;;;9.13;1.10;;;3.50;99.90;;;;;;4895293;28;91844;-75
2023/11/25 01:09:56;;;;;;;15.88;2.08;;;3.60;99.90;;;;;;4910738;28;88882;-75
2023/11/25 01:12:22;;;;;;;14.05;1.50;;;3.60;99.90;;;;;;4899363;28;87695;-76
2023/11/25 01:14:47;;;;;;;6.55;0.77;;;3.60;99.90;;;;;;4894381;28;89438;-76
2023/11/25 01:17:13;;;;;;;8.38;1.10;;;3.70;99.90;;;;;;4899219;28;89828;-76
2023/11/25 01:19:38;;;;;;;8.25;1.05;;;3.70;99.90;;;;;;4893991;28;91627;-75
2023/11/25 01:22:04;;;;;;;11.02;1.00;;;3.70;99.90;;;;;;4894502;28;88328;-75
2023/11/25 01:24:30;;;;;;;12.68;2.05;;;3.70;99.90;;;;;;4892532;28;89715;-76
2023/11/25 01:26:56;;;;;;;7.38;1.10;;;3.80;99.90;;;;;;4913464;28;91506;-75
2023/11/25 01:29:22;;;;;;;11.80;2.15;;;3.80;99.90;;;;;;4893822;28;89520;-77
2023/11/25 01:31:48;;;;;;;8.82;1.15;;;3.80;99.90;;;;;;4895638;28;88211;-76
2023/11/25 01:34:14;;;;;;;11.57;0.95;;;3.80;99.90;;;;;;4917785;28;87934;-76
2023/11/25 01:36:42;;;;;;;11.50;1.02;;;3.80;99.90;;;;;;4899033;28;89644;-76
2023/11/25 01:39:08;;;;;;;8.73;2.78;;;3.80;99.90;;;;;;4894953;28;90771;-76
2023/11/25 01:41:34;;;;;;;9.38;0.90;;;3.80;99.90;;;;;;4897507;28;88323;-76
2023/11/25 01:44:00;;;;;;;7.68;1.17;;;3.70;99.90;;;;;;4903008;28;90635;-75
2023/11/25 01:46:37;;;;;;;12.27;1.30;;;3.70;99.90;;;;;;4894042;28;89464;-76
2023/11/25 01:49:07;;;;;;;7.75;0.90;;;3.60;99.90;;;;;;4916813;28;88703;-75
2023/11/25 01:51:35;;;;;;;15.85;1.85;;;3.60;99.90;;;;;;4899237;28;89108;-76
2023/11/25 01:54:02;;;;;;;4.78;0.80;;;3.60;99.90;;;;;;4912164;28;87754;-76
2023/11/25 01:56:28;;;;;;;8.73;1.45;;;3.50;99.90;;;;;;4893984;28;91377;-75
2023/11/25 01:58:57;;;;;;;13.15;1.58;;;3.50;99.90;;;;;;4917712;28;87686;-76
2023/11/25 02:01:24;;;;;;;20.08;1.35;;;3.40;99.90;;;;;;4896642;28;88454;-76
2023/11/25 02:03:49;;;;;;;9.57;0.88;;;3.30;99.90;;;;;;4895048;28;89061;-75
2023/11/25 02:06:15;;;;;;;4.60;0.73;;;3.30;99.90;;;;;;4895935;28;92349;-76
2023/11/25 02:08:43;;;;;;;15.15;1.30;;;3.20;99.90;;;;;;4893968;28;89760;-76
2023/11/25 02:11:09;;;;;;;10.70;0.82;;;3.20;99.90;;;;;;4892135;28;87437;-75
2023/11/25 02:13:34;;;;;;;8.25;1.10;;;3.20;99.90;;;;;;4893799;28;89390;-75
2023/11/25 02:16:01;;;;;;;8.50;1.40;;;3.20;99.90;;;;;;4900533;28;92129;-76
2023/11/25 02:18:30;;;;;;;9.15;1.00;;;3.10;99.90;;;;;;4899128;28;90184;-76
2023/11/25 02:20:56;;;;;;;12.02;1.27;;;3.10;99.90;;;;;;4902847;28;87647;-75
2023/11/25 02:23:22;;;;;;;5.85;0.70;;;3.10;99.90;;;;;;4902718;28;89461;-76
2023/11/25 02:25:49;;;;;;;11.98;0.85;;;3.10;99.90;;;;;;4931954;28;91466;-76
2023/11/25 02:28:21;;;;;;;3.97;0.85;;;3.10;99.90;;;;;;4900226;28;88107;-76
2023/11/25 02:30:48;;;;;;;13.43;1.20;;;3.10;99.90;;;;;;4902184;28;87792;-76
2023/11/25 02:33:20;;;;;;;11.57;1.10;;;3.10;99.90;;;;;;4912856;28;88470;-76
2023/11/25 02:35:46;;;;;;;8.07;0.88;;;3.10;99.90;;;;;;4917922;28;87923;-74
2023/11/25 02:38:12;;;;;;;12.73;1.73;;;3.10;99.90;;;;;;4920438;28;88615;-75
2023/11/25 02:40:39;;;;;;;4.47;1.08;;;3.10;99.90;;;;;;4931742;28;88943;-76
2023/11/25 02:43:07;;;;;;;13.15;1.25;;;3.10;99.90;;;;;;4896509;28;95655;-76
2023/11/25 02:45:33;;;;;;;9.32;1.17;;;3.00;99.90;;;;;;4920542;28;88398;-74
2023/11/25 02:47:59;;;;;;;12.10;0.90;;;3.00;99.90;;;;;;4902043;28;89825;-76
2023/11/25 02:50:25;;;;;;;12.43;1.08;;;3.00;99.90;;;;;;4897020;28;87824;-75
2023/11/25 02:52:51;;;;;;;9.60;0.90;;;3.00;99.90;;;;;;4913494;28;92083;-76
2023/11/25 02:55:17;;;;;;;14.15;1.33;;;3.00;99.90;;;;;;4913553;28;90775;-75
2023/11/25 02:57:44;;;;;;;7.03;1.10;;;3.00;99.90;;;;;;4919592;28;88236;-76
2023/11/25 03:02:53;;;;;;;9.80;1.00;;;3.10;99.90;;;;;;4912841;28;87752;-75
2023/11/25 03:05:19;;;;;;;11.63;1.25;;;3.20;99.90;;;;;;4899270;28;90916;-76
2023/11/25 03:07:44;;;;;;;7.05;1.20;;;3.20;99.90;;;;;;4914755;28;88647;-77
2023/11/25 03:10:10;;;;;;;19.02;1.10;;;3.20;99.90;;;;;;4916048;28;87786;-76
2023/11/25 03:12:36;;;;;;;10.52;0.82;;;3.30;99.90;;;;;;4914454;28;87650;-75
2023/11/25 03:15:02;;;;;;;11.38;1.08;;;3.30;99.90;;;;;;4897293;28;90114;-76
2023/11/25 03:17:29;;;;;;;13.95;1.05;;;3.30;99.90;;;;;;4897623;28;91504;-76
2023/11/25 03:19:58;;;;;;;9.10;1.10;;;3.40;99.90;;;;;;4900409;28;88200;-76
2023/11/25 03:22:25;;;;;;;7.72;0.88;;;3.40;99.90;;;;;;4912769;28;87348;-75
2023/11/25 03:24:51;;;;;;;15.05;1.20;;;3.40;99.90;;;;;;4912802;28;87818;-76
2023/11/25 03:27:17;;;;;;;15.18;1.65;;;3.50;99.90;;;;;;4900153;28;88597;-75
2023/11/25 03:29:45;;;;;;;8.35;0.73;;;3.50;99.90;;;;;;4895345;28;88584;-75
2023/11/25 03:32:14;;;;;;;14.65;1.05;;;3.50;99.90;;;;;;4893091;28;88510;-75
2023/11/25 03:34:41;;;;;;;13.65;1.65;;;3.60;99.90;;;;;;4894245;28;91672;-75
2023/11/25 03:37:08;;;;;;;15.27;1.73;;;3.60;99.90;;;;;;4896199;28;91459;-76
2023/11/25 03:39:35;;;;;;;9.00;1.40;;;3.60;99.90;;;;;;4897523;28;88191;-76
2023/11/25 03:42:01;;;;;;;10.27;1.33;;;3.60;99.90;;;;;;4897967;28;90733;-75
2023/11/25 03:44:27;;;;;;;13.50;1.10;;;3.70;99.90;;;;;;4897204;28;92791;-77
2023/11/25 03:46:53;;;;;;;10.55;1.00;;;3.70;99.90;;;;;;4917918;28;88385;-76
2023/11/25 03:49:20;;;;;;;16.98;1.48;;;3.70;99.90;;;;;;4926275;28;88093;-75
2023/11/25 03:51:49;;;;;;;13.77;0.98;;;3.60;99.90;;;;;;4895280;28;89145;-76
2023/11/25 03:54:15;;;;;;;12.52;0.82;;;3.60;99.90;;;;;;4919005;28;88926;-75
2023/11/25 03:56:41;;;;;;;8.30;1.30;;;3.70;99.90;;;;;;4914881;28;90448;-76
2023/11/25 03:59:08;;;;;;;12.38;1.10;;;3.70;99.90;;;;;;4895403;28;87628;-76
2023/11/25 04:01:34;;;;;;;15.10;1.23;;;3.60;99.90;;;;;;4914134;28;87623;-76
2023/11/25 04:04:03;;;;;;;11.15;1.25;;;3.60;99.90;;;;;;4898523;28;91786;-76
2023/11/25 04:06:38;;;;;;;14.60;1.00;;;3.70;99.90;;;;;;4929385;28;90163;-76
2023/11/25 04:09:04;;;;;;;12.18;1.38;;;3.60;99.90;;;;;;4915555;28;88372;-76
2023/11/25 04:11:30;;;;;;;16.95;1.52;;;3.60;99.90;;;;;;4913185;28;87341;-75
2023/11/25 04:14:05;;;;;;;10.50;1.02;;;3.60;99.90;;;;;;4900004;28;90401;-76
2023/11/25 04:16:30;;;;;;;19.48;1.17;;;3.60;99.90;;;;;;4893142;28;90020;-78
2023/11/25 04:18:56;;;;;;;5.80;0.98;;;3.60;99.90;;;;;;4894792;28;88840;-76
2023/11/25 04:21:25;;;;;;;9.05;1.15;;;3.50;99.90;;;;;;4900749;28;90628;-76
2023/11/25 04:23:55;;;;;;;9.70;1.70;;;3.50;99.90;;;;;;4895176;28;89803;-75
2023/11/25 04:26:21;;;;;;;22.02;1.25;;;3.50;99.90;;;;;;4896531;28;91501;-76
2023/11/25 04:28:47;;;;;;;12.30;1.02;;;3.40;99.90;;;;;;4899901;28;87611;-75
2023/11/25 04:31:16;;;;;;;10.00;1.27;;;3.40;99.90;;;;;;4914567;28;87492;-76
2023/11/25 04:33:42;;;;;;;9.30;1.00;;;3.40;99.90;;;;;;4895752;28;89542;-76
2023/11/25 04:36:11;;;;;;;12.40;1.10;;;3.30;99.90;;;;;;4897515;28;91857;-76
2023/11/25 04:38:37;;;;;;;15.05;1.20;;;3.30;99.90;;;;;;4913305;28;88128;-76
2023/11/25 04:41:03;;;;;;;16.92;1.70;;;3.20;99.90;;;;;;4914882;28;88075;-75
2023/11/25 04:43:30;;;;;;;11.90;1.50;;;3.20;99.90;;;;;;4913984;28;91681;-76
2023/11/25 04:45:56;;;;;;;11.02;1.00;;;3.10;99.90;;;;;;4917906;28;88821;-76
2023/11/25 04:48:22;;;;;;;8.82;1.20;;;3.00;99.90;;;;;;4915822;28;87602;-76
2023/11/25 04:50:48;;;;;;;16.60;1.02;;;3.00;99.90;;;;;;4918420;28;87781;-77
2023/11/25 04:53:13;;;;;;;13.48;1.60;;;3.00;99.90;;;;;;4897295;28;90322;-76
2023/11/25 04:55:39;;;;;;;15.55;1.23;;;2.90;99.90;;;;;;4931604;28;90199;-76
2023/11/25 04:58:04;;;;;;;14.48;1.05;;;3.00;99.90;;;;;;4902647;28;87576;-76
2023/11/25 05:00:30;;;;;;;9.75;1.70;;;3.00;99.90;;;;;;4899356;28;87339;-77
2023/11/25 05:02:56;;;;;;;12.32;1.20;;;3.00;99.90;;;;;;4898679;28;92029;-76
2023/11/25 05:05:23;;;;;;;18.52;1.25;;;3.00;99.90;;;;;;4895239;28;89275;-76
2023/11/25 05:07:49;;;;;;;11.32;1.83;;;3.00;99.90;;;;;;4900556;28;88644;-76
2023/11/25 05:10:19;;;;;;;10.77;1.33;;;3.00;99.90;;;;;;4893625;28;90844;-75
2023/11/25 05:12:45;;;;;;;13.75;1.63;;;3.10;99.90;;;;;;4911674;28;88076;-76
2023/11/25 05:15:11;;;;;;;11.75;1.30;;;3.10;99.90;;;;;;4895740;28;89790;-76
2023/11/25 05:17:40;;;;;;;7.78;1.20;;;3.10;99.90;;;;;;4917263;28;88448;-77
2023/11/25 05:20:10;;;;;;;14.02;1.30;;;3.10;99.90;;;;;;4921605;28;87285;-76
2023/11/25 05:22:35;;;;;;;16.70;1.70;;;3.10;99.90;;;;;;4920734;28;88419;-76
2023/11/25 05:25:01;;;;;;;15.40;1.35;;;3.10;99.90;;;;;;4898453;28;91601;-76
2023/11/25 05:27:27;;;;;;;17.60;1.83;;;3.20;99.90;;;;;;4894977;28;87406;-76
2023/11/25 05:29:52;;;;;;;8.30;2.28;;;3.20;99.90;;;;;;4897822;28;89353;-75
2023/11/25 05:32:18;;;;;;;17.23;2.35;;;3.20;99.90;;;;;;4913199;28;89293;-76
2023/11/25 05:34:44;;;;;;;10.52;1.52;;;3.20;99.90;;;;;;4893726;28;89662;-77
2023/11/25 05:37:10;;;;;;;13.73;1.27;;;3.20;99.90;;;;;;4914685;28;87745;-76
2023/11/25 05:39:36;;;;;;;13.50;1.65;;;3.20;99.90;;;;;;4914034;28;87888;-77
2023/11/25 05:42:05;;;;;;;11.70;2.55;;;3.20;99.90;;;;;;4901241;28;89585;-75
2023/11/25 05:44:31;;;;;;;20.67;3.58;;;3.20;99.90;;;;;;4902480;28;90133;-76
2023/11/25 05:46:57;;;;;;;19.50;1.80;;;3.20;99.90;;;;;;4914385;28;87596;-76
2023/11/25 05:49:23;;;;;;;11.75;1.50;;;3.20;99.90;;;;;;4913610;28;87457;-76
2023/11/25 05:51:50;;;;;;;11.02;2.05;;;3.20;99.90;;;;;;4912690;28;88743;-76
2023/11/25 05:54:16;;;;;;;18.50;1.90;;;3.20;99.90;;;;;;4919239;28;89477;-76
2023/11/25 05:56:44;;;;;;;29.13;3.42;;;3.20;99.90;;;;;;4914760;28;88670;-77
2023/11/25 05:59:09;;;;;;;13.98;2.00;;;3.30;99.90;;;;;;4901849;28;91408;-76
2023/11/25 06:01:36;;;;;;;14.77;1.55;;;3.30;99.90;;;;;;4897851;28;89862;-76
2023/11/25 06:04:02;;;;;;;17.52;1.85;;;3.40;99.90;;;;;;4927366;28;91414;-76
2023/11/25 06:06:28;;;;;;;13.90;1.25;;;3.40;99.90;;;;;;4912146;28;87885;-77
2023/11/25 06:08:54;;;;;;;13.13;1.33;;;3.40;99.90;;;;;;4912893;28;90723;-76
2023/11/25 06:11:20;;;;;;;16.33;2.75;;;3.50;99.90;;;;;;4901030;28;90157;-76
2023/11/25 06:13:46;;;;;;;21.17;2.65;;;3.50;99.90;;;;;;4912871;28;87656;-77
2023/11/25 06:16:11;;;;;;;12.65;1.73;;;3.50;99.90;;;;;;4897140;28;88485;-76
2023/11/25 06:18:38;;;;;;;21.40;2.08;;;3.60;99.90;;;;;;4896623;28;89789;-77
2023/11/25 06:21:04;;;;;;;12.23;1.67;;;3.60;99.90;;;;;;4898500;28;91388;-76
2023/11/25 06:23:31;;;;;;;20.60;1.58;;;3.60;99.90;;;;;;4897316;28;89601;-76
2023/11/25 06:25:56;;;;;;;13.45;2.00;;;3.70;99.90;;;;;;4914246;28;88229;-76
2023/11/25 06:28:24;;;;;;;19.77;2.00;;;3.70;99.90;;;;;;4919735;28;87850;-76
2023/11/25 06:30:58;;;;;;;17.90;2.22;;;3.70;99.90;;;;;;4916548;28;88400;-76
2023/11/25 06:33:26;;;;;;;18.83;1.83;;;3.70;99.90;;;;;;4915620;28;88354;-76
2023/11/25 06:35:56;;;;;;;16.02;1.60;;;3.80;99.90;;;;;;4900890;28;87699;-76
2023/11/25 06:38:23;;;;;;;19.33;2.30;;;3.80;99.90;;;;;;4898309;28;88326;-76
2023/11/25 06:40:49;;;;;;;19.33;2.28;;;3.80;99.90;;;;;;4894374;28;89700;-77
2023/11/25 06:43:15;;;;;;;13.50;2.20;;;3.90;99.90;;;;;;4897058;28;90554;-76
2023/11/25 06:45:43;;;;;;;19.27;2.00;;;3.90;99.90;;;;;;4906856;28;89477;-77
2023/11/25 06:48:12;;;;;;;16.70;1.90;;;4.00;99.90;;;;;;4899950;28;88619;-77
2023/11/25 06:50:38;;;;;;;11.85;1.50;;;4.00;99.90;;;;;;4913974;28;92112;-76
2023/11/25 06:53:04;;;;;;;19.90;1.83;;;4.00;99.90;;;;;;4904630;28;91635;-76
2023/11/25 06:55:32;;;;;;;20.65;1.80;;;4.10;99.90;;;;;;4903668;28;88551;-77
2023/11/25 06:57:57;;;;;;;18.15;3.65;;;4.10;99.90;;;;;;4917891;28;89509;-76
2023/11/25 07:00:23;;;;;;;15.93;2.20;;;4.10;99.90;;;;;;4897222;28;91178;-77
2023/11/25 07:02:49;;;;;;;15.52;2.42;;;4.20;99.90;;;;;;4896499;28;91796;-77
2023/11/25 07:05:15;;;;;;;20.75;3.33;;;4.20;99.90;;;;;;4899050;28;87561;-76
2023/11/25 07:07:41;;;;;;;16.02;1.63;;;4.20;99.90;;;;;;4895435;28;91437;-76
2023/11/25 07:10:13;;;;;;;10.88;1.23;;;4.20;99.90;;;;;;4900854;28;92644;-78
2023/11/25 07:12:40;;;;;;;21.35;1.65;;;4.20;99.90;;;;;;4909666;28;89264;-77
2023/11/25 07:15:07;;;;;;;14.18;1.35;;;4.20;99.90;;;;;;4899354;28;88578;-75
2023/11/25 07:17:34;;;;;;;15.32;1.40;;;4.20;99.90;;;;;;4920111;28;89287;-76
2023/11/25 07:20:00;;;;;;;14.38;1.52;;;4.20;99.90;;;;;;4902552;28;89612;-77
2023/11/25 07:22:26;;;;;;;11.38;1.63;;;4.20;99.90;;;;;;4927953;28;89979;-76
2023/11/25 07:24:51;;;;;;;19.50;1.48;;;4.10;99.90;;;;;;4918940;28;88108;-76
2023/11/25 07:27:18;;;;;;;16.15;1.60;;;4.20;99.90;;;;;;4896837;28;90610;-77
2023/11/25 07:29:46;;;;;;;11.45;1.88;;;4.20;99.90;;;;;;4915698;28;88543;-75
2023/11/25 07:32:12;;;;;;;18.73;2.25;;;4.10;99.90;;;;;;4912972;28;90099;-79
2023/11/25 07:34:38;;;;;;;15.20;1.20;;;4.10;99.90;;;;;;4916434;28;89166;-78
2023/11/25 07:37:07;;;;;;;12.95;1.75;;;4.10;99.90;;;;;;4903295;28;88598;-77
2023/11/25 07:39:34;;;;;;;8.55;1.27;;;4.10;99.90;;;;;;4920281;28;89989;-77
2023/11/25 07:42:01;;;;;;;10.57;1.50;;;4.10;99.90;;;;;;4890349;28;89921;-77
2023/11/25 07:44:32;;;;;;;10.60;1.30;;;4.20;99.90;;;;;;4893309;28;88392;-77
2023/11/25 07:47:02;;;;;;;7.68;1.13;;;4.20;99.90;;;;;;4892686;28;88773;-76
2023/11/25 07:49:31;;;;;;;14.18;1.60;;;4.20;99.90;;;;;;4903923;28;88330;-78
2023/11/25 07:51:57;;;;;;;8.40;1.13;;;4.30;99.90;;;;;;4875856;28;88605;-77
2023/11/25 07:54:24;;;;;;;14.23;2.03;;;4.30;99.90;;;;;;4839851;28;87944;-76
2023/11/25 07:56:49;;;;;;;11.55;1.20;;;4.40;99.90;;;;;;4901125;28;88038;-77
2023/11/25 07:59:15;;;;;;;12.18;3.63;;;4.40;99.90;;;;;;4890529;28;94249;-77
2023/11/25 08:01:40;;;;;;;5.38;0.90;;;4.40;99.90;;;;;;4910230;28;88709;-77
2023/11/25 08:04:06;;;;;;;9.43;1.40;;;4.40;99.90;;;;;;4894591;28;87966;-77
2023/11/25 08:06:32;;;;;;;9.15;1.25;;;4.50;99.90;;;;;;4909195;28;88091;-77
2023/11/25 08:08:58;;;;;;;12.10;1.38;;;4.50;99.90;;;;;;4887093;28;91485;-77
2023/11/25 08:11:29;;;;;;;14.80;1.60;;;4.50;99.90;;;;;;4928319;28;89416;-76
2023/11/25 08:13:55;;;;;;;10.27;1.30;;;4.50;99.90;;;;;;4895233;28;89472;-77
2023/11/25 08:16:21;;;;;;;6.70;1.10;;;4.50;99.90;;;;;;4890351;28;90594;-77
2023/11/25 08:18:47;;;;;;;11.35;1.10;;;4.60;99.90;;;;;;4914337;28;87729;-77
2023/11/25 08:21:16;;;;;;;13.93;1.88;;;4.60;99.90;;;;;;4903730;28;88304;-76
2023/11/25 08:23:42;;;;;;;9.65;2.42;;;4.60;99.90;;;;;;4893881;28;88847;-77
2023/11/25 08:26:27;;;;;;;10.18;1.23;;;4.60;99.90;;;;;;4894842;28;90191;-77
2023/11/25 08:28:53;;;;;;;7.43;1.35;;;4.60;99.90;;;;;;4914064;28;90161;-78
2023/11/25 08:31:20;;;;;;;11.02;1.52;;;4.60;99.90;;;;;;4888438;28;89688;-77
2023/11/25 08:33:46;;;;;;;12.45;1.80;;;4.70;99.90;;;;;;4919091;28;88635;-79
2023/11/25 08:36:13;;;;;;;12.43;2.22;;;4.70;99.90;;;;;;4912469;28;87382;-78
2023/11/25 08:38:39;;;;;;;16.05;1.80;;;4.70;99.90;;;;;;4892963;28;89862;-78
2023/11/25 08:41:06;;;;;;;13.55;1.77;;;4.70;99.90;;;;;;4910100;28;88368;-78
2023/11/25 08:43:42;;;;;;;12.20;2.50;;;4.70;99.90;;;;;;4897033;28;88511;-78
2023/11/25 08:46:12;;;;;;;14.60;2.03;;;4.80;99.90;;;;;;4920972;28;87458;-78
2023/11/25 08:48:41;;;;;;;15.88;1.85;;;4.80;99.90;;;;;;4907629;28;93163;-79
2023/11/25 08:51:17;;;;;;;9.77;1.65;;;4.80;99.90;;;;;;4917540;28;88274;-78
2023/11/25 08:53:47;;;;;;;10.57;1.90;;;4.80;99.90;;;;;;4911539;28;87134;-80
2023/11/25 08:56:13;;;;;;;11.00;1.73;;;4.80;99.90;;;;;;4911037;28;89109;-80
2023/11/25 08:58:40;;;;;;;16.80;2.33;;;4.90;99.90;;;;;;4924346;28;87367;-79
2023/11/25 09:01:12;;;;;;;8.40;1.60;;;4.80;99.90;;;;;;4905579;28;90019;-79
2023/11/25 09:03:39;;;;;;;22.05;2.05;;;4.90;99.90;;;;;;4884880;28;87154;-79
2023/11/25 09:06:05;;;;;;;15.50;2.22;;;4.90;99.90;;;;;;4926115;28;88487;-79
2023/11/25 09:08:30;;;;;;;16.63;2.25;;;4.90;99.90;;;;;;4906674;28;92133;-78
2023/11/25 09:11:08;;;;;;;14.50;2.00;;;4.90;99.90;;;;;;4914175;28;91680;-79
2023/11/25 09:13:34;;;;;;;9.13;1.63;;;4.90;99.90;;;;;;4917293;28;88077;-78
2023/11/25 09:16:00;;;;;;;12.65;2.10;;;5.00;99.90;;;;;;4909182;28;90346;-79
2023/11/25 09:18:27;;;;;;;13.80;2.10;;;5.00;99.90;;;;;;4904594;28;89295;-79
2023/11/25 09:21:34;;;;;;;14.23;1.88;;;5.10;99.90;;;;;;4898170;28;89598;-78
2023/11/25 09:24:00;;;;;;;12.77;2.00;;;5.10;99.90;;;;;;4889258;28;87104;-79
2023/11/25 09:26:33;;;;;;;18.50;2.58;;;5.20;99.90;;;;;;4924962;28;86911;-79
2023/11/25 09:28:59;;;;;;;7.50;2.03;;;5.30;99.90;;;;;;4906411;28;91393;-78
2023/11/25 09:32:10;;;;;;;9.85;2.10;;;5.30;99.90;;;;;;4936970;28;88397;-79
2023/11/25 09:34:35;;;;;;;9.85;1.83;;;5.40;99.90;;;;;;4930154;28;87588;-78
2023/11/25 09:37:02;;;;;;;9.38;1.90;;;5.50;99.90;;;;;;4910583;28;89779;-78
2023/11/25 09:39:56;;;;;;;10.70;2.30;;;5.60;99.90;;;;;;4923672;28;88908;-77
2023/11/25 09:42:24;;;;;;;9.40;1.92;;;5.60;99.90;;;;;;4915351;28;91877;-78
2023/11/25 09:44:51;;;;;;;9.30;2.42;;;5.70;99.90;;;;;;4915159;28;87584;-79
2023/11/25 09:47:16;;;;;;;10.30;1.70;;;5.70;99.90;;;;;;4917081;28;88040;-78
2023/11/25 09:49:50;;;;;;;11.77;3.38;;;5.70;99.90;;;;;;4932846;28;88494;-79
2023/11/25 09:52:19;;;;;;;10.93;2.42;;;5.80;99.90;;;;;;4928186;28;87988;-79
2023/11/25 09:58:02;;;;;;;9.48;1.85;;;5.90;99.90;;;;;;4937552;28;86536;-78
2023/11/25 10:00:40;;;;;;;15.00;2.40;;;5.90;99.90;;;;;;4924984;28;88176;-79
2023/11/25 10:03:47;;;;;;;9.13;1.20;;;6.00;99.90;;;;;;4912691;28;90256;-79
2023/11/25 10:06:14;;;;;;;5.70;1.73;;;6.10;99.90;;;;;;4926646;28;88027;-79
2023/11/25 10:09:09;;;;;;;7.40;1.27;;;6.10;99.90;;;;;;4928102;28;87546;-78
2023/11/25 10:11:42;;;;;;;10.48;1.20;;;6.10;99.90;;;;;;4911420;28;89087;-79
2023/11/25 10:14:17;;;;;;;11.73;1.55;;;6.10;99.90;;;;;;4905190;28;88829;-78
2023/11/25 10:16:44;;;;;;;12.80;1.48;;;6.20;99.90;;;;;;4926912;28;87111;-78
2023/11/25 10:19:23;;;;;;;5.70;0.80;;;6.20;99.90;;;;;;4927210;28;87119;-79
2023/11/25 10:21:51;;;;;;;5.72;1.10;;;6.30;99.90;;;;;;4950439;28;93683;-80
2023/11/25 10:24:30;;;;;;;5.80;1.20;;;6.30;99.90;;;;;;4948780;28;86516;-80
2023/11/25 10:26:56;;;;;;;3.33;1.17;;;6.40;99.90;;;;;;4904325;28;87174;-81
2023/11/25 10:30:01;;;;;;;5.45;1.00;;;6.40;99.90;;;;;;4932011;28;87031;-80
2023/11/25 10:32:27;;;;;;;7.03;1.30;;;6.40;99.90;;;;;;4970622;28;92258;-80
2023/11/25 10:35:09;;;;;;;6.35;1.17;;;6.50;99.90;;;;;;4943791;28;90248;-79
2023/11/25 10:37:39;;;;;;;9.52;1.23;;;6.40;99.90;;;;;;4949937;28;87168;-82
2023/11/25 10:40:27;;;;;;;5.88;2.08;;;6.40;99.90;;;;;;4945090;28;87148;-79
2023/11/25 10:42:54;;;;;;;4.43;1.30;;;6.50;99.90;;;;;;4946836;28;88288;-81
2023/11/25 10:45:28;;;;;;;6.60;1.15;;;6.50;99.90;;;;;;4934096;28;92042;-81
2023/11/25 10:47:56;;;;;;;5.72;1.00;;;6.50;99.90;;;;;;4938950;28;87201;-81
2023/11/25 10:53:30;;;;;;;6.30;1.38;;;6.60;99.90;;;;;;4958879;28;89517;-80
2023/11/25 10:56:00;;;;;;;7.03;1.52;;;6.70;99.90;;;;;;4947370;28;87840;-81
2023/11/25 10:58:26;;;;;;;10.23;1.60;;;6.70;99.90;;;;;;4943754;28;87890;-80
2023/11/25 11:00:54;;;;;;;5.13;1.55;;;6.80;99.90;;;;;;4949360;28;87554;-81
2023/11/25 11:04:09;;;;;;;10.25;1.45;;;6.70;99.90;;;;;;4948487;28;88170;-81
2023/11/25 11:06:48;;;;;;;7.20;1.42;;;6.80;99.90;;;;;;4892184;28;93046;-81
2023/11/25 11:09:19;;;;;;;4.90;1.58;;;6.90;99.90;;;;;;4929465;28;87054;-81
2023/11/25 11:29:46;;;;;;;7.80;1.02;;;7.90;99.90;;;;;;4941545;28;87091;-82
2023/11/25 11:32:20;;;;;;;4.90;1.00;;;8.10;99.90;;;;;;4944847;28;87426;-83
2023/11/25 11:34:46;;;;;;;4.53;1.50;;;8.30;99.90;;;;;;4929422;28;88797;-81
2023/11/25 11:37:15;;;;;;;7.97;1.27;;;8.30;99.90;;;;;;4947533;28;88680;-80
2023/11/25 11:40:05;;;;;;;11.52;1.45;;;8.30;99.90;;;;;;4946586;28;87897;-80
2023/11/25 11:42:34;;;;;;;12.60;1.48;;;8.30;99.90;;;;;;4944810;28;87200;-81
2023/11/25 11:48:35;;;;;;;7.60;1.25;;;8.20;99.90;;;;;;4945746;28;87065;-82
2023/11/25 11:51:58;;;;;;;6.00;1.05;;;8.20;99.90;;;;;;4909400;28;88079;-82
2023/11/25 11:54:24;;;;;;;11.05;0.93;;;8.30;99.90;;;;;;4914074;28;88035;-81
2023/11/25 11:57:17;;;;;;;8.15;0.93;;;8.30;99.90;;;;;;4925551;28;89672;-80
2023/11/25 12:00:13;;;;;;;6.30;0.90;;;8.40;99.90;;;;;;4950487;28;87193;-81
2023/11/25 12:05:40;;;;;;;8.50;1.30;;;8.60;99.90;;;;;;4943322;28;86896;-80
2023/11/25 12:08:14;;;;;;;2.25;0.60;;;8.70;99.90;;;;;;4932533;28;87705;-79
2023/11/25 12:21:01;;;;;;;6.93;1.10;;;9.00;99.90;;;;;;4922303;28;86796;-80
2023/11/25 12:23:28;;;;;;;8.25;1.20;;;9.00;99.90;;;;;;4918877;28;91322;-81
2023/11/25 12:29:23;;;;;;;7.72;1.05;;;8.90;99.90;;;;;;4939680;28;87068;-78
2023/11/25 12:31:48;;;;;;;3.97;0.68;;;8.90;99.90;;;;;;4942885;28;87504;-80
2023/11/25 12:34:15;;;;;;;6.60;1.00;;;8.90;99.90;;;;;;4942273;28;88284;-77
2023/11/25 12:36:41;;;;;;;10.63;1.63;;;8.90;99.90;;;;;;4932096;28;89652;-78
2023/11/25 12:39:19;;;;;;;7.72;1.05;;;8.90;99.90;;;;;;4943746;28;86992;-79
2023/11/25 12:41:44;;;;;;;5.18;1.20;;;9.00;99.90;;;;;;4944139;28;87394;-79
2023/11/25 12:54:16;;;;;;;7.63;1.27;;;9.80;99.90;;;;;;4941226;28;86950;-78
2023/11/25 12:56:43;;;;;;;11.65;2.75;;;10.00;99.90;;;;;;4955336;28;91093;-79
2023/11/25 12:59:34;;;;;;;10.23;1.10;;;10.30;99.90;;;;;;4943183;28;88134;-79
2023/11/25 13:02:11;;;;;;;10.48;1.13;;;10.60;99.90;;;;;;4940041;28;87064;-79
2023/11/25 13:05:21;;;;;;;11.55;1.42;;;10.70;99.90;;;;;;4923383;28;89400;-78
2023/11/25 13:07:46;;;;;;;8.55;1.80;;;10.90;99.90;;;;;;4936703;28;88081;-79
2023/11/25 13:20:22;;;;;;;16.15;1.92;;;11.90;99.90;;;;;;4939417;28;88194;-79
2023/11/25 13:29:44;;;;;;;11.88;2.05;;;12.50;99.40;;;;;;4926674;28;86944;-81
2023/11/25 13:32:10;;;;;;;10.25;1.60;;;12.70;98.70;;;;;;4947518;28;88249;-80
2023/11/25 13:35:01;;;;;;;10.45;2.17;;;12.80;98.40;;;;;;4925370;28;88690;-81
2023/11/25 13:37:28;;;;;;;11.13;1.60;;;13.00;98.40;;;;;;4928326;28;87104;-82
2023/11/25 13:47:14;;;;;;;11.27;1.77;;;12.40;98.50;;;;;;4946913;28;86964;-81
2023/11/25 13:49:40;;;;;;;12.15;1.35;;;11.90;98.80;;;;;;4956212;28;89097;-81
2023/11/25 13:52:06;;;;;;;11.63;3.15;;;11.50;99.60;;;;;;4956922;28;87463;-83
2023/11/25 13:54:32;;;;;;;3.97;0.70;;;11.30;99.90;;;;;;4944890;28;88274;-80
2023/11/25 13:56:57;;;;;;;7.32;3.00;;;11.10;99.90;;;;;;4927548;28;88739;-80
2023/11/25 13:59:23;;;;;;;9.73;4.78;;;10.80;99.90;;;;;;4933732;28;87987;-79
2023/11/25 14:02:02;;;;;;;7.50;3.30;;;10.40;99.90;;;;;;4929650;28;88727;-78
2023/11/25 14:04:27;;;;;;;12.65;5.57;;;10.00;99.90;;;;;;4951802;28;91489;-79
2023/11/25 14:07:17;;;;;;;5.13;0.77;;;9.70;99.90;;;;;;4935592;28;88596;-79
2023/11/25 14:09:43;;;;;;;2.38;0.43;;;9.30;99.90;;;;;;4951806;28;87443;-78
2023/11/25 14:12:11;;;;;;;20.73;11.93;;;9.00;99.90;;;;;;4937373;28;87030;-79
2023/11/25 14:14:36;;;;;;;17.73;10.20;;;8.70;99.90;;;;;;4955569;28;92665;-80
2023/11/25 14:17:02;;;;;;;32.65;16.35;;;8.60;99.90;;;;;;4923232;28;92008;-79
2023/11/25 14:19:28;;;;;;;52.65;28.88;;;8.60;99.90;;;;;;4938773;28;87471;-80
2023/11/25 14:22:05;;;;;;;88.75;44.40;;;8.50;99.90;;;;;;4929680;28;90315;-80